SJV120 WADD-WAHI
Flight info
| Callsign | SJV120 |
|---|---|
| Flight time | 1h 5m |
| Altitude | 34000 |
| Route | OKANG3D/WADD27 OKANG DCT SBR W16 LASEM W52 ANY W17N SO DCT OGOMA WAHI29 |
| Aircraft | A320/M-SDE3FGHIRWY/LB1 |
Departure
| Time | 2026-04-26 04:21 |
|---|---|
| Airport | Denpasar I Gusti Ngurah Rai International Airport (WADD) |
Arrival
| Time | 2026-04-26 05:27 |
|---|---|
| Airport | Yogyakarta International Airport (WAHI) |
| Time | Latitude | Longitude | Altitude | Speed | Heading |
|---|---|---|---|---|---|
| 2026-04-26 03:52 | -8.74565 | 115.16274 | 34 ft | 0 kts | 358° |
| 2026-04-26 03:55 | -8.74566 | 115.16274 | 33 ft | 0 kts | 358° |
| 2026-04-26 04:10 | -8.74567 | 115.16274 | 61 ft | 1 kts | 358° |
| 2026-04-26 04:10 | -8.74592 | 115.16275 | 30 ft | 4 kts | 358° |
| 2026-04-26 04:11 | -8.74613 | 115.16276 | 32 ft | 3 kts | 358° |
| 2026-04-26 04:11 | -8.74640 | 115.16277 | 30 ft | 4 kts | 358° |
| 2026-04-26 04:11 | -8.74666 | 115.16278 | 31 ft | 3 kts | 358° |
| 2026-04-26 04:11 | -8.74689 | 115.16273 | 30 ft | 4 kts | 52° |
| 2026-04-26 04:12 | -8.74699 | 115.16249 | 31 ft | 4 kts | 85° |
| 2026-04-26 04:12 | -8.74700 | 115.16231 | 29 ft | 0 kts | 88° |
| 2026-04-26 04:14 | -8.74700 | 115.16233 | 29 ft | 1 kts | 87° |
| 2026-04-26 04:15 | -8.74698 | 115.16257 | 31 ft | 5 kts | 87° |
| 2026-04-26 04:15 | -8.74697 | 115.16285 | 30 ft | 7 kts | 87° |
| 2026-04-26 04:15 | -8.74694 | 115.16356 | 32 ft | 8 kts | 88° |
| 2026-04-26 04:15 | -8.74691 | 115.16421 | 32 ft | 10 kts | 87° |
| 2026-04-26 04:16 | -8.74690 | 115.16469 | 32 ft | 11 kts | 88° |
| 2026-04-26 04:16 | -8.74687 | 115.16552 | 32 ft | 12 kts | 88° |
| 2026-04-26 04:16 | -8.74683 | 115.16645 | 32 ft | 14 kts | 87° |
| 2026-04-26 04:16 | -8.74678 | 115.16748 | 32 ft | 15 kts | 88° |
| 2026-04-26 04:17 | -8.74674 | 115.16862 | 32 ft | 17 kts | 88° |
| 2026-04-26 04:17 | -8.74668 | 115.16985 | 32 ft | 18 kts | 88° |
| 2026-04-26 04:17 | -8.74663 | 115.17114 | 32 ft | 17 kts | 88° |
| 2026-04-26 04:17 | -8.74658 | 115.17216 | 32 ft | 15 kts | 87° |
| 2026-04-26 04:18 | -8.74653 | 115.17324 | 31 ft | 14 kts | 87° |
| 2026-04-26 04:18 | -8.74649 | 115.17415 | 32 ft | 13 kts | 88° |
| 2026-04-26 04:18 | -8.74646 | 115.17500 | 32 ft | 12 kts | 88° |
| 2026-04-26 04:18 | -8.74643 | 115.17590 | 32 ft | 13 kts | 88° |
| 2026-04-26 04:19 | -8.74639 | 115.17688 | 33 ft | 15 kts | 88° |
| 2026-04-26 04:19 | -8.74634 | 115.17795 | 33 ft | 16 kts | 88° |
| 2026-04-26 04:19 | -8.74629 | 115.17912 | 32 ft | 17 kts | 88° |
| 2026-04-26 04:19 | -8.74625 | 115.18038 | 32 ft | 16 kts | 94° |
| 2026-04-26 04:20 | -8.74701 | 115.18097 | 31 ft | 14 kts | 179° |
| 2026-04-26 04:20 | -8.74785 | 115.18090 | 29 ft | 6 kts | 226° |
| 2026-04-26 04:20 | -8.74788 | 115.18057 | 29 ft | 0 kts | 267° |
| 2026-04-26 04:20 | -8.74789 | 115.18035 | 29 ft | 17 kts | 267° |
| 2026-04-26 04:21 | -8.74804 | 115.17667 | 28 ft | 85 kts | 268° |
| 2026-04-26 04:21 | -8.74837 | 115.16888 | 28 ft | 135 kts | 268° |
| 2026-04-26 04:21 | -8.74881 | 115.15801 | 91 ft | 168 kts | 268° |
| 2026-04-26 04:21 | -8.74885 | 115.14643 | 690 ft | 166 kts | 268° |
| 2026-04-26 04:22 | -8.74843 | 115.13460 | 1145 ft | 170 kts | 271° |
| 2026-04-26 04:22 | -8.74796 | 115.12261 | 1663 ft | 171 kts | 270° |
| 2026-04-26 04:22 | -8.74777 | 115.11012 | 1890 ft | 188 kts | 270° |
| 2026-04-26 04:22 | -8.74766 | 115.09616 | 2050 ft | 210 kts | 270° |
| 2026-04-26 04:23 | -8.74758 | 115.08078 | 2213 ft | 234 kts | 269° |
| 2026-04-26 04:23 | -8.74751 | 115.06351 | 2463 ft | 258 kts | 270° |
| 2026-04-26 04:23 | -8.74740 | 115.04478 | 2955 ft | 272 kts | 270° |
| 2026-04-26 04:23 | -8.74729 | 115.02548 | 3698 ft | 276 kts | 270° |
| 2026-04-26 04:24 | -8.74722 | 115.00593 | 4457 ft | 280 kts | 270° |
| 2026-04-26 04:24 | -8.74703 | 114.98612 | 5187 ft | 284 kts | 274° |
| 2026-04-26 04:24 | -8.74199 | 114.96691 | 5892 ft | 286 kts | 296° |
| 2026-04-26 04:24 | -8.73266 | 114.94908 | 6611 ft | 288 kts | 300° |
| 2026-04-26 04:25 | -8.72273 | 114.93135 | 7283 ft | 292 kts | 301° |
| 2026-04-26 04:25 | -8.71264 | 114.91344 | 7972 ft | 295 kts | 301° |
| 2026-04-26 04:25 | -8.70239 | 114.89534 | 8622 ft | 299 kts | 301° |
| 2026-04-26 04:25 | -8.69201 | 114.87702 | 9288 ft | 302 kts | 301° |
| 2026-04-26 04:26 | -8.68149 | 114.85850 | 9924 ft | 306 kts | 300° |
| 2026-04-26 04:26 | -8.67065 | 114.83950 | 10227 ft | 322 kts | 301° |
| 2026-04-26 04:26 | -8.65911 | 114.81927 | 10385 ft | 341 kts | 300° |
| 2026-04-26 04:26 | -8.64712 | 114.79827 | 10819 ft | 348 kts | 301° |
| 2026-04-26 04:27 | -8.63494 | 114.77695 | 11347 ft | 352 kts | 301° |
| 2026-04-26 04:27 | -8.62267 | 114.75546 | 11897 ft | 355 kts | 301° |
| 2026-04-26 04:27 | -8.61028 | 114.73373 | 12443 ft | 358 kts | 301° |
| 2026-04-26 04:27 | -8.59780 | 114.71186 | 13001 ft | 361 kts | 301° |
| 2026-04-26 04:28 | -8.58522 | 114.68979 | 13546 ft | 364 kts | 301° |
| 2026-04-26 04:28 | -8.57252 | 114.66751 | 14039 ft | 367 kts | 301° |
| 2026-04-26 04:28 | -8.55975 | 114.64505 | 14498 ft | 370 kts | 301° |
| 2026-04-26 04:28 | -8.54686 | 114.62242 | 14974 ft | 373 kts | 301° |
| 2026-04-26 04:29 | -8.53302 | 114.60023 | 15437 ft | 375 kts | 310° |
| 2026-04-26 04:29 | -8.51388 | 114.58247 | 15893 ft | 375 kts | 327° |
| 2026-04-26 04:29 | -8.49208 | 114.56791 | 16361 ft | 377 kts | 328° |
| 2026-04-26 04:29 | -8.46998 | 114.55340 | 16834 ft | 380 kts | 328° |
| 2026-04-26 04:30 | -8.44770 | 114.53890 | 17301 ft | 382 kts | 328° |
| 2026-04-26 04:30 | -8.42525 | 114.52432 | 17762 ft | 385 kts | 328° |
| 2026-04-26 04:30 | -8.40263 | 114.50960 | 18218 ft | 388 kts | 328° |
| 2026-04-26 04:30 | -8.37992 | 114.49479 | 18614 ft | 390 kts | 328° |
| 2026-04-26 04:31 | -8.35705 | 114.47984 | 19025 ft | 393 kts | 328° |
| 2026-04-26 04:31 | -8.33409 | 114.46481 | 19429 ft | 395 kts | 328° |
| 2026-04-26 04:31 | -8.31099 | 114.44965 | 19834 ft | 397 kts | 328° |
| 2026-04-26 04:31 | -8.28776 | 114.43438 | 20256 ft | 400 kts | 328° |
| 2026-04-26 04:32 | -8.26444 | 114.41906 | 20667 ft | 402 kts | 328° |
| 2026-04-26 04:32 | -8.24087 | 114.40362 | 21071 ft | 404 kts | 328° |
| 2026-04-26 04:32 | -8.21718 | 114.38814 | 21479 ft | 407 kts | 328° |
| 2026-04-26 04:32 | -8.19334 | 114.37255 | 21898 ft | 410 kts | 328° |
| 2026-04-26 04:33 | -8.16936 | 114.35685 | 22309 ft | 412 kts | 328° |
| 2026-04-26 04:33 | -8.14523 | 114.34105 | 22708 ft | 415 kts | 328° |
| 2026-04-26 04:33 | -8.12092 | 114.32515 | 23094 ft | 418 kts | 328° |
| 2026-04-26 04:33 | -8.09646 | 114.30915 | 23480 ft | 420 kts | 328° |
| 2026-04-26 04:34 | -8.07217 | 114.29325 | 23795 ft | 423 kts | 328° |
| 2026-04-26 04:34 | -8.04746 | 114.27706 | 24131 ft | 425 kts | 328° |
| 2026-04-26 04:34 | -8.02265 | 114.26080 | 24476 ft | 426 kts | 328° |
| 2026-04-26 04:34 | -7.99773 | 114.24446 | 24812 ft | 428 kts | 328° |
| 2026-04-26 04:35 | -7.97268 | 114.22804 | 25137 ft | 430 kts | 328° |
| 2026-04-26 04:35 | -7.94754 | 114.21162 | 25451 ft | 431 kts | 328° |
| 2026-04-26 04:35 | -7.92227 | 114.19516 | 25756 ft | 433 kts | 328° |
| 2026-04-26 04:35 | -7.89692 | 114.17867 | 26065 ft | 435 kts | 328° |
| 2026-04-26 04:36 | -7.87144 | 114.16209 | 26355 ft | 437 kts | 328° |
| 2026-04-26 04:36 | -7.84588 | 114.14543 | 26649 ft | 438 kts | 328° |
| 2026-04-26 04:36 | -7.82026 | 114.12868 | 26932 ft | 440 kts | 328° |
| 2026-04-26 04:36 | -7.79481 | 114.11142 | 27208 ft | 442 kts | 323° |
| 2026-04-26 04:37 | -7.77210 | 114.09043 | 27474 ft | 445 kts | 312° |
| 2026-04-26 04:37 | -7.75350 | 114.06541 | 27735 ft | 448 kts | 301° |
| 2026-04-26 04:37 | -7.73971 | 114.03721 | 27998 ft | 450 kts | 291° |
| 2026-04-26 04:37 | -7.73047 | 114.00694 | 28252 ft | 453 kts | 286° |
| 2026-04-26 04:38 | -7.72180 | 113.97642 | 28516 ft | 455 kts | 287° |
| 2026-04-26 04:38 | -7.71302 | 113.94571 | 28781 ft | 456 kts | 287° |
| 2026-04-26 04:38 | -7.70419 | 113.91492 | 29059 ft | 458 kts | 287° |
| 2026-04-26 04:38 | -7.69531 | 113.88404 | 29347 ft | 460 kts | 287° |
| 2026-04-26 04:39 | -7.68636 | 113.85302 | 29633 ft | 462 kts | 287° |
| 2026-04-26 04:39 | -7.67736 | 113.82187 | 29911 ft | 463 kts | 287° |
| 2026-04-26 04:39 | -7.66836 | 113.79064 | 30140 ft | 465 kts | 287° |
| 2026-04-26 04:39 | -7.65936 | 113.75929 | 30368 ft | 466 kts | 287° |
| 2026-04-26 04:40 | -7.65034 | 113.72786 | 30595 ft | 468 kts | 287° |
| 2026-04-26 04:40 | -7.64128 | 113.69632 | 30816 ft | 469 kts | 287° |
| 2026-04-26 04:40 | -7.63219 | 113.66470 | 31032 ft | 470 kts | 287° |
| 2026-04-26 04:40 | -7.62305 | 113.63297 | 31250 ft | 472 kts | 287° |
| 2026-04-26 04:41 | -7.61389 | 113.60116 | 31452 ft | 473 kts | 287° |
| 2026-04-26 04:41 | -7.60471 | 113.56924 | 31672 ft | 475 kts | 287° |
| 2026-04-26 04:41 | -7.59552 | 113.53728 | 31872 ft | 476 kts | 287° |
| 2026-04-26 04:41 | -7.58630 | 113.50524 | 32179 ft | 475 kts | 287° |
| 2026-04-26 04:42 | -7.57710 | 113.47334 | 32488 ft | 474 kts | 287° |
| 2026-04-26 04:42 | -7.56792 | 113.44147 | 32789 ft | 473 kts | 287° |
| 2026-04-26 04:42 | -7.55874 | 113.40967 | 33095 ft | 472 kts | 288° |
| 2026-04-26 04:42 | -7.54957 | 113.37797 | 33408 ft | 471 kts | 288° |
| 2026-04-26 04:43 | -7.54041 | 113.34626 | 33730 ft | 470 kts | 288° |
| 2026-04-26 04:43 | -7.53128 | 113.31464 | 33849 ft | 468 kts | 288° |
| 2026-04-26 04:43 | -7.52241 | 113.28395 | 33870 ft | 458 kts | 288° |
| 2026-04-26 04:44 | -7.50461 | 113.22240 | 33871 ft | 452 kts | 288° |
| 2026-04-26 04:44 | -7.48710 | 113.16207 | 33870 ft | 451 kts | 288° |
| 2026-04-26 04:45 | -7.46950 | 113.10136 | 33867 ft | 451 kts | 288° |
| 2026-04-26 04:45 | -7.45200 | 113.04064 | 33869 ft | 451 kts | 288° |
| 2026-04-26 04:46 | -7.43448 | 112.98002 | 33866 ft | 451 kts | 288° |
| 2026-04-26 04:46 | -7.41689 | 112.91939 | 33873 ft | 451 kts | 288° |
| 2026-04-26 04:47 | -7.39927 | 112.85883 | 33875 ft | 450 kts | 288° |
| 2026-04-26 04:47 | -7.38171 | 112.79826 | 33876 ft | 450 kts | 289° |
| 2026-04-26 04:48 | -7.33789 | 112.71590 | 33878 ft | 445 kts | 305° |
| 2026-04-26 04:48 | -7.30382 | 112.66379 | 33872 ft | 445 kts | 305° |
| 2026-04-26 04:49 | -7.26987 | 112.61161 | 33872 ft | 445 kts | 305° |
| 2026-04-26 04:49 | -7.23592 | 112.55946 | 33874 ft | 445 kts | 305° |
| 2026-04-26 04:50 | -7.20216 | 112.50771 | 33868 ft | 445 kts | 305° |
| 2026-04-26 04:50 | -7.16821 | 112.45557 | 33868 ft | 445 kts | 305° |
| 2026-04-26 04:51 | -7.13424 | 112.40347 | 33869 ft | 445 kts | 305° |
| 2026-04-26 04:51 | -7.10021 | 112.35143 | 33867 ft | 445 kts | 305° |
| 2026-04-26 04:52 | -7.06619 | 112.29935 | 33867 ft | 445 kts | 305° |
| 2026-04-26 04:52 | -7.03217 | 112.24731 | 33869 ft | 445 kts | 305° |
| 2026-04-26 04:53 | -6.99811 | 112.19518 | 33872 ft | 445 kts | 305° |
| 2026-04-26 04:53 | -6.96408 | 112.14309 | 33873 ft | 445 kts | 305° |
| 2026-04-26 04:54 | -6.92997 | 112.09102 | 33874 ft | 445 kts | 305° |
| 2026-04-26 04:54 | -6.89596 | 112.03895 | 33872 ft | 445 kts | 305° |
| 2026-04-26 04:55 | -6.86189 | 111.98690 | 33872 ft | 445 kts | 305° |
| 2026-04-26 04:55 | -6.82799 | 111.93517 | 33870 ft | 446 kts | 305° |
| 2026-04-26 04:56 | -6.79388 | 111.88299 | 33871 ft | 446 kts | 305° |
| 2026-04-26 04:56 | -6.75979 | 111.83082 | 33875 ft | 446 kts | 305° |
| 2026-04-26 04:57 | -6.72565 | 111.77866 | 33873 ft | 446 kts | 305° |
| 2026-04-26 04:57 | -6.69146 | 111.72653 | 33871 ft | 446 kts | 305° |
| 2026-04-26 04:58 | -6.65731 | 111.67440 | 33869 ft | 447 kts | 303° |
| 2026-04-26 04:58 | -6.64391 | 111.64619 | 33866 ft | 448 kts | 288° |
| 2026-04-26 04:58 | -6.63786 | 111.61548 | 33866 ft | 450 kts | 274° |
| 2026-04-26 04:59 | -6.64030 | 111.58416 | 33858 ft | 451 kts | 257° |
| 2026-04-26 04:59 | -6.65139 | 111.55472 | 33850 ft | 452 kts | 240° |
| 2026-04-26 04:59 | -6.68667 | 111.50226 | 33844 ft | 453 kts | 236° |
| 2026-04-26 05:00 | -6.72248 | 111.44995 | 33838 ft | 455 kts | 236° |
| 2026-04-26 05:00 | -6.75824 | 111.39740 | 33844 ft | 456 kts | 236° |
| 2026-04-26 05:01 | -6.79403 | 111.34479 | 33857 ft | 456 kts | 236° |
| 2026-04-26 05:01 | -6.82985 | 111.29218 | 33858 ft | 456 kts | 236° |
| 2026-04-26 05:02 | -6.86569 | 111.23952 | 33766 ft | 457 kts | 236° |
| 2026-04-26 05:02 | -6.88362 | 111.21320 | 33500 ft | 456 kts | 236° |
| 2026-04-26 05:02 | -6.90151 | 111.18694 | 33206 ft | 453 kts | 236° |
| 2026-04-26 05:03 | -6.91328 | 111.16965 | 32868 ft | 451 kts | 236° |
| 2026-04-26 05:03 | -6.93687 | 111.13492 | 32192 ft | 448 kts | 236° |
| 2026-04-26 05:03 | -6.94849 | 111.11781 | 31859 ft | 447 kts | 235° |
| 2026-04-26 05:03 | -6.97188 | 111.08332 | 31170 ft | 445 kts | 235° |
| 2026-04-26 05:04 | -6.98343 | 111.06626 | 30828 ft | 445 kts | 235° |
| 2026-04-26 05:04 | -7.00088 | 111.04056 | 30309 ft | 444 kts | 235° |
| 2026-04-26 05:04 | -7.01833 | 111.01488 | 29768 ft | 444 kts | 234° |
| 2026-04-26 05:04 | -7.03572 | 110.98930 | 29216 ft | 442 kts | 235° |
| 2026-04-26 05:05 | -7.05301 | 110.96388 | 28705 ft | 439 kts | 235° |
| 2026-04-26 05:05 | -7.07021 | 110.93858 | 28197 ft | 437 kts | 235° |
| 2026-04-26 05:05 | -7.08733 | 110.91341 | 27691 ft | 435 kts | 235° |
| 2026-04-26 05:05 | -7.10435 | 110.88834 | 27191 ft | 433 kts | 235° |
| 2026-04-26 05:06 | -7.12128 | 110.86339 | 26702 ft | 431 kts | 235° |
| 2026-04-26 05:06 | -7.13812 | 110.83856 | 26221 ft | 429 kts | 235° |
| 2026-04-26 05:06 | -7.15493 | 110.81375 | 25751 ft | 428 kts | 235° |
| 2026-04-26 05:06 | -7.17330 | 110.79038 | 25292 ft | 425 kts | 224° |
| 2026-04-26 05:07 | -7.19616 | 110.77172 | 24837 ft | 423 kts | 211° |
| 2026-04-26 05:07 | -7.22246 | 110.75872 | 24389 ft | 420 kts | 198° |
| 2026-04-26 05:07 | -7.25076 | 110.75188 | 23936 ft | 419 kts | 185° |
| 2026-04-26 05:07 | -7.27983 | 110.75059 | 23471 ft | 418 kts | 180° |
| 2026-04-26 05:08 | -7.30890 | 110.75014 | 22954 ft | 418 kts | 180° |
| 2026-04-26 05:08 | -7.33787 | 110.74966 | 22481 ft | 416 kts | 180° |
| 2026-04-26 05:08 | -7.36682 | 110.74916 | 22009 ft | 415 kts | 180° |
| 2026-04-26 05:08 | -7.39561 | 110.74864 | 21510 ft | 414 kts | 180° |
| 2026-04-26 05:09 | -7.42405 | 110.74814 | 21029 ft | 413 kts | 180° |
| 2026-04-26 05:09 | -7.45275 | 110.74763 | 20569 ft | 412 kts | 180° |
| 2026-04-26 05:09 | -7.48122 | 110.74601 | 20067 ft | 412 kts | 189° |
| 2026-04-26 05:09 | -7.50825 | 110.73729 | 19852 ft | 404 kts | 205° |
| 2026-04-26 05:10 | -7.53159 | 110.72227 | 19729 ft | 393 kts | 220° |
| 2026-04-26 05:10 | -7.55023 | 110.70299 | 19480 ft | 377 kts | 228° |
| 2026-04-26 05:10 | -7.56877 | 110.68460 | 18879 ft | 375 kts | 215° |
| 2026-04-26 05:10 | -7.59021 | 110.66972 | 18461 ft | 374 kts | 215° |
| 2026-04-26 05:11 | -7.61121 | 110.65428 | 18056 ft | 372 kts | 215° |
| 2026-04-26 05:11 | -7.63202 | 110.63885 | 17622 ft | 370 kts | 216° |
| 2026-04-26 05:11 | -7.65265 | 110.62350 | 17202 ft | 368 kts | 216° |
| 2026-04-26 05:11 | -7.67316 | 110.60823 | 16789 ft | 365 kts | 216° |
| 2026-04-26 05:12 | -7.69352 | 110.59308 | 16377 ft | 363 kts | 216° |
| 2026-04-26 05:12 | -7.71377 | 110.57798 | 15966 ft | 361 kts | 216° |
| 2026-04-26 05:12 | -7.73389 | 110.56297 | 15570 ft | 359 kts | 216° |
| 2026-04-26 05:12 | -7.75388 | 110.54802 | 15179 ft | 357 kts | 215° |
| 2026-04-26 05:13 | -7.77375 | 110.53317 | 14789 ft | 355 kts | 215° |
| 2026-04-26 05:13 | -7.79349 | 110.51837 | 14420 ft | 353 kts | 216° |
| 2026-04-26 05:13 | -7.81313 | 110.50363 | 14037 ft | 351 kts | 216° |
| 2026-04-26 05:13 | -7.83265 | 110.48897 | 13662 ft | 349 kts | 216° |
| 2026-04-26 05:14 | -7.85203 | 110.47440 | 13252 ft | 347 kts | 216° |
| 2026-04-26 05:14 | -7.87133 | 110.45988 | 12855 ft | 345 kts | 216° |
| 2026-04-26 05:14 | -7.89049 | 110.44548 | 12457 ft | 342 kts | 216° |
| 2026-04-26 05:14 | -7.90953 | 110.43117 | 12050 ft | 341 kts | 216° |
| 2026-04-26 05:15 | -7.92849 | 110.41690 | 11683 ft | 339 kts | 215° |
| 2026-04-26 05:15 | -7.94730 | 110.40275 | 11299 ft | 337 kts | 216° |
| 2026-04-26 05:15 | -7.96606 | 110.38867 | 10949 ft | 335 kts | 216° |
| 2026-04-26 05:15 | -7.98464 | 110.37472 | 10728 ft | 329 kts | 216° |
| 2026-04-26 05:16 | -8.00263 | 110.36121 | 10600 ft | 313 kts | 216° |
| 2026-04-26 05:16 | -8.01952 | 110.34851 | 10474 ft | 293 kts | 216° |
| 2026-04-26 05:16 | -8.03563 | 110.33636 | 10201 ft | 288 kts | 216° |
| 2026-04-26 05:16 | -8.05166 | 110.32427 | 9931 ft | 287 kts | 215° |
| 2026-04-26 05:17 | -8.06757 | 110.31226 | 9642 ft | 285 kts | 216° |
| 2026-04-26 05:17 | -8.08341 | 110.30029 | 9335 ft | 284 kts | 216° |
| 2026-04-26 05:17 | -8.09918 | 110.28839 | 9031 ft | 282 kts | 216° |
| 2026-04-26 05:17 | -8.11490 | 110.27655 | 8733 ft | 281 kts | 216° |
| 2026-04-26 05:18 | -8.13052 | 110.26482 | 8443 ft | 280 kts | 216° |
| 2026-04-26 05:18 | -8.14612 | 110.25313 | 8151 ft | 278 kts | 216° |
| 2026-04-26 05:18 | -8.16140 | 110.24169 | 7870 ft | 277 kts | 216° |
| 2026-04-26 05:18 | -8.17704 | 110.22997 | 7585 ft | 276 kts | 216° |
| 2026-04-26 05:19 | -8.19198 | 110.21791 | 7232 ft | 277 kts | 225° |
| 2026-04-26 05:19 | -8.20191 | 110.20159 | 6940 ft | 276 kts | 250° |
| 2026-04-26 05:19 | -8.20438 | 110.18235 | 6672 ft | 271 kts | 277° |
| 2026-04-26 05:19 | -8.19926 | 110.16454 | 6541 ft | 260 kts | 297° |
| 2026-04-26 05:20 | -8.19071 | 110.14864 | 6299 ft | 256 kts | 309° |
| 2026-04-26 05:20 | -8.17773 | 110.13690 | 6009 ft | 250 kts | 334° |
| 2026-04-26 05:20 | -8.16140 | 110.13175 | 5676 ft | 246 kts | 358° |
| 2026-04-26 05:20 | -8.14436 | 110.13183 | 5336 ft | 245 kts | 3° |
| 2026-04-26 05:21 | -8.12739 | 110.13224 | 5075 ft | 242 kts | 3° |
| 2026-04-26 05:21 | -8.11065 | 110.13264 | 4793 ft | 240 kts | 3° |
| 2026-04-26 05:21 | -8.09427 | 110.13303 | 4548 ft | 236 kts | 3° |
| 2026-04-26 05:21 | -8.07821 | 110.13340 | 4426 ft | 225 kts | 3° |
| 2026-04-26 05:22 | -8.06294 | 110.13372 | 4130 ft | 216 kts | 2° |
| 2026-04-26 05:22 | -8.04798 | 110.13405 | 3730 ft | 214 kts | 2° |
| 2026-04-26 05:22 | -8.03296 | 110.13438 | 3300 ft | 213 kts | 4° |
| 2026-04-26 05:22 | -8.01858 | 110.13708 | 2868 ft | 209 kts | 22° |
| 2026-04-26 05:23 | -8.00598 | 110.14417 | 2421 ft | 208 kts | 37° |
| 2026-04-26 05:23 | -7.99415 | 110.15265 | 1985 ft | 209 kts | 36° |
| 2026-04-26 05:23 | -7.98238 | 110.16098 | 1709 ft | 200 kts | 36° |
| 2026-04-26 05:23 | -7.97063 | 110.16699 | 1601 ft | 185 kts | 11° |
| 2026-04-26 05:24 | -7.95838 | 110.16541 | 1459 ft | 176 kts | 333° |
| 2026-04-26 05:24 | -7.94948 | 110.15721 | 1360 ft | 173 kts | 304° |
| 2026-04-26 05:24 | -7.94271 | 110.14752 | 1290 ft | 166 kts | 305° |
| 2026-04-26 05:24 | -7.93622 | 110.13825 | 1325 ft | 159 kts | 307° |
| 2026-04-26 05:25 | -7.93115 | 110.12853 | 1275 ft | 157 kts | 288° |
| 2026-04-26 05:25 | -7.92742 | 110.11815 | 1036 ft | 154 kts | 289° |
| 2026-04-26 05:25 | -7.92377 | 110.10812 | 862 ft | 150 kts | 289° |
| 2026-04-26 05:25 | -7.92020 | 110.09832 | 652 ft | 149 kts | 288° |
| 2026-04-26 05:26 | -7.91665 | 110.08858 | 434 ft | 146 kts | 287° |
| 2026-04-26 05:26 | -7.91328 | 110.07916 | 221 ft | 144 kts | 287° |
| 2026-04-26 05:26 | -7.90979 | 110.06966 | 64 ft | 145 kts | 287° |
| 2026-04-26 05:26 | -7.90664 | 110.06091 | 35 ft | 114 kts | 288° |
| 2026-04-26 05:27 | -7.90456 | 110.05517 | 35 ft | 56 kts | 291° |
| 2026-04-26 05:27 | -7.90351 | 110.05302 | 31 ft | 29 kts | 309° |
| 2026-04-26 05:27 | -7.90227 | 110.05184 | 29 ft | 17 kts | 320° |
| 2026-04-26 05:27 | -7.90127 | 110.05108 | 29 ft | 17 kts | 342° |
| 2026-04-26 05:28 | -7.90021 | 110.05135 | 36 ft | 14 kts | 20° |
| 2026-04-26 05:28 | -7.89966 | 110.05194 | 38 ft | 13 kts | 105° |
| 2026-04-26 05:28 | -7.90000 | 110.05288 | 36 ft | 15 kts | 110° |
| 2026-04-26 05:28 | -7.90040 | 110.05391 | 38 ft | 17 kts | 111° |
| 2026-04-26 05:29 | -7.90080 | 110.05498 | 38 ft | 16 kts | 110° |
| 2026-04-26 05:29 | -7.90118 | 110.05599 | 38 ft | 15 kts | 110° |
| 2026-04-26 05:29 | -7.90153 | 110.05693 | 38 ft | 14 kts | 110° |
| 2026-04-26 05:29 | -7.90155 | 110.05737 | 38 ft | 3 kts | 44° |
| 2026-04-26 05:30 | -7.90128 | 110.05747 | 38 ft | 5 kts | 19° |
| 2026-04-26 05:30 | -7.90098 | 110.05758 | 38 ft | 2 kts | 20° |
| 2026-04-26 05:30 | -7.90088 | 110.05762 | 37 ft | 1 kts | 19° |